sensor_id;sensor_type;location;lat;lon;timestamp;P1;durP1;ratioP1;P2;durP2;ratioP2
40501;SDS011;29631;49.168;9.848;2023-05-29T00:01:45;3.10;;;2.90;;
40501;SDS011;29631;49.168;9.848;2023-05-29T00:04:10;4.30;;;2.92;;
40501;SDS011;29631;49.168;9.848;2023-05-29T00:06:37;2.75;;;2.58;;
40501;SDS011;29631;49.168;9.848;2023-05-29T00:09:03;3.10;;;2.90;;
40501;SDS011;29631;49.168;9.848;2023-05-29T00:11:29;3.28;;;3.08;;
40501;SDS011;29631;49.168;9.848;2023-05-29T00:13:55;2.88;;;2.70;;
40501;SDS011;29631;49.168;9.848;2023-05-29T00:16:21;4.82;;;3.00;;
40501;SDS011;29631;49.168;9.848;2023-05-29T00:18:48;3.13;;;2.92;;
40501;SDS011;29631;49.168;9.848;2023-05-29T00:21:16;4.38;;;2.80;;
40501;SDS011;29631;49.168;9.848;2023-05-29T00:23:42;3.78;;;3.08;;
40501;SDS011;29631;49.168;9.848;2023-05-29T00:26:08;3.45;;;3.05;;
40501;SDS011;29631;49.168;9.848;2023-05-29T00:28:34;3.65;;;2.83;;
40501;SDS011;29631;49.168;9.848;2023-05-29T00:31:01;3.60;;;3.03;;
40501;SDS011;29631;49.168;9.848;2023-05-29T00:33:27;3.33;;;3.03;;
40501;SDS011;29631;49.168;9.848;2023-05-29T00:35:53;4.00;;;2.92;;
40501;SDS011;29631;49.168;9.848;2023-05-29T00:38:18;3.67;;;2.97;;
40501;SDS011;29631;49.168;9.848;2023-05-29T00:40:44;2.85;;;2.58;;
40501;SDS011;29631;49.168;9.848;2023-05-29T00:43:10;2.83;;;2.58;;
40501;SDS011;29631;49.168;9.848;2023-05-29T00:45:36;3.25;;;2.95;;
40501;SDS011;29631;49.168;9.848;2023-05-29T00:48:04;3.45;;;3.15;;
40501;SDS011;29631;49.168;9.848;2023-05-29T00:50:31;3.22;;;2.72;;
40501;SDS011;29631;49.168;9.848;2023-05-29T00:52:58;3.25;;;3.05;;
40501;SDS011;29631;49.168;9.848;2023-05-29T00:55:28;2.70;;;2.50;;
40501;SDS011;29631;49.168;9.848;2023-05-29T00:57:54;3.38;;;3.13;;
40501;SDS011;29631;49.168;9.848;2023-05-29T01:00:20;5.88;;;3.38;;
40501;SDS011;29631;49.168;9.848;2023-05-29T01:02:47;3.80;;;3.28;;
40501;SDS011;29631;49.168;9.848;2023-05-29T01:05:13;5.63;;;3.55;;
40501;SDS011;29631;49.168;9.848;2023-05-29T01:07:40;3.88;;;2.95;;
40501;SDS011;29631;49.168;9.848;2023-05-29T01:10:09;2.88;;;2.67;;
40501;SDS011;29631;49.168;9.848;2023-05-29T01:12:38;3.35;;;2.92;;
40501;SDS011;29631;49.168;9.848;2023-05-29T01:20:45;2.97;;;2.70;;
40501;SDS011;29631;49.168;9.848;2023-05-29T01:29:08;2.85;;;2.53;;
40501;SDS011;29631;49.168;9.848;2023-05-29T01:31:38;2.80;;;2.60;;
40501;SDS011;29631;49.168;9.848;2023-05-29T01:34:06;3.28;;;3.08;;
40501;SDS011;29631;49.168;9.848;2023-05-29T01:36:32;3.22;;;2.55;;
40501;SDS011;29631;49.168;9.848;2023-05-29T01:38:58;4.78;;;2.97;;
40501;SDS011;29631;49.168;9.848;2023-05-29T01:41:24;3.42;;;2.97;;
40501;SDS011;29631;49.168;9.848;2023-05-29T01:43:51;4.18;;;2.85;;
40501;SDS011;29631;49.168;9.848;2023-05-29T01:46:18;2.97;;;2.72;;
40501;SDS011;29631;49.168;9.848;2023-05-29T01:48:46;3.63;;;2.78;;
40501;SDS011;29631;49.168;9.848;2023-05-29T01:51:13;2.92;;;2.72;;
40501;SDS011;29631;49.168;9.848;2023-05-29T01:53:39;3.17;;;2.97;;
40501;SDS011;29631;49.168;9.848;2023-05-29T01:56:07;3.17;;;2.97;;
40501;SDS011;29631;49.168;9.848;2023-05-29T01:58:33;4.30;;;3.25;;
40501;SDS011;29631;49.168;9.848;2023-05-29T02:01:01;2.92;;;2.72;;
40501;SDS011;29631;49.168;9.848;2023-05-29T02:03:28;3.80;;;2.70;;
40501;SDS011;29631;49.168;9.848;2023-05-29T02:05:55;2.67;;;2.58;;
40501;SDS011;29631;49.168;9.848;2023-05-29T02:08:22;2.92;;;2.65;;
40501;SDS011;29631;49.168;9.848;2023-05-29T02:10:48;4.53;;;2.92;;
40501;SDS011;29631;49.168;9.848;2023-05-29T02:13:13;3.40;;;3.10;;
40501;SDS011;29631;49.168;9.848;2023-05-29T02:15:39;3.25;;;3.03;;
40501;SDS011;29631;49.168;9.848;2023-05-29T02:18:08;2.90;;;2.70;;
40501;SDS011;29631;49.168;9.848;2023-05-29T02:20:40;3.08;;;2.80;;
40501;SDS011;29631;49.168;9.848;2023-05-29T02:23:07;2.60;;;2.45;;
40501;SDS011;29631;49.168;9.848;2023-05-29T02:25:34;3.30;;;3.00;;
40501;SDS011;29631;49.168;9.848;2023-05-29T02:28:00;3.17;;;2.88;;
40501;SDS011;29631;49.168;9.848;2023-05-29T02:30:27;3.03;;;2.83;;
40501;SDS011;29631;49.168;9.848;2023-05-29T02:32:54;2.85;;;2.67;;
40501;SDS011;29631;49.168;9.848;2023-05-29T02:35:20;3.75;;;3.03;;
40501;SDS011;29631;49.168;9.848;2023-05-29T02:37:48;3.25;;;2.95;;
40501;SDS011;29631;49.168;9.848;2023-05-29T02:40:15;3.13;;;2.83;;
40501;SDS011;29631;49.168;9.848;2023-05-29T02:42:41;3.17;;;2.50;;
40501;SDS011;29631;49.168;9.848;2023-05-29T02:45:07;3.05;;;2.80;;
40501;SDS011;29631;49.168;9.848;2023-05-29T02:47:33;3.17;;;2.97;;
40501;SDS011;29631;49.168;9.848;2023-05-29T02:50:00;2.78;;;2.58;;
40501;SDS011;29631;49.168;9.848;2023-05-29T02:52:27;3.28;;;2.97;;
40501;SDS011;29631;49.168;9.848;2023-05-29T02:54:53;3.05;;;2.75;;
40501;SDS011;29631;49.168;9.848;2023-05-29T02:57:23;2.53;;;2.42;;
40501;SDS011;29631;49.168;9.848;2023-05-29T02:59:49;3.33;;;3.03;;
40501;SDS011;29631;49.168;9.848;2023-05-29T03:02:16;3.38;;;2.75;;
40501;SDS011;29631;49.168;9.848;2023-05-29T03:04:42;3.03;;;2.75;;
40501;SDS011;29631;49.168;9.848;2023-05-29T03:07:10;3.65;;;3.30;;
40501;SDS011;29631;49.168;9.848;2023-05-29T03:09:35;3.47;;;3.08;;
40501;SDS011;29631;49.168;9.848;2023-05-29T03:12:01;3.25;;;2.53;;
40501;SDS011;29631;49.168;9.848;2023-05-29T03:14:28;3.47;;;2.83;;
40501;SDS011;29631;49.168;9.848;2023-05-29T03:16:54;3.33;;;2.97;;
40501;SDS011;29631;49.168;9.848;2023-05-29T03:19:20;3.03;;;2.83;;
40501;SDS011;29631;49.168;9.848;2023-05-29T03:21:45;2.75;;;2.55;;
40501;SDS011;29631;49.168;9.848;2023-05-29T03:24:11;3.75;;;3.10;;
40501;SDS011;29631;49.168;9.848;2023-05-29T03:26:40;3.25;;;2.92;;
40501;SDS011;29631;49.168;9.848;2023-05-29T03:29:06;3.00;;;2.80;;
40501;SDS011;29631;49.168;9.848;2023-05-29T03:31:32;3.10;;;2.90;;
40501;SDS011;29631;49.168;9.848;2023-05-29T03:33:58;3.35;;;2.92;;
40501;SDS011;29631;49.168;9.848;2023-05-29T03:36:24;3.00;;;2.72;;
40501;SDS011;29631;49.168;9.848;2023-05-29T03:38:50;3.00;;;2.80;;
40501;SDS011;29631;49.168;9.848;2023-05-29T03:41:16;3.42;;;2.67;;
40501;SDS011;29631;49.168;9.848;2023-05-29T03:43:41;3.17;;;2.97;;
40501;SDS011;29631;49.168;9.848;2023-05-29T03:46:07;3.40;;;3.10;;
40501;SDS011;29631;49.168;9.848;2023-05-29T03:48:33;2.90;;;2.70;;
40501;SDS011;29631;49.168;9.848;2023-05-29T03:50:59;3.30;;;2.97;;
40501;SDS011;29631;49.168;9.848;2023-05-29T03:53:24;3.45;;;3.13;;
40501;SDS011;29631;49.168;9.848;2023-05-29T03:55:50;3.25;;;2.95;;
40501;SDS011;29631;49.168;9.848;2023-05-29T03:58:16;3.15;;;2.85;;
40501;SDS011;29631;49.168;9.848;2023-05-29T04:00:42;3.83;;;3.00;;
40501;SDS011;29631;49.168;9.848;2023-05-29T04:03:08;2.95;;;2.75;;
40501;SDS011;29631;49.168;9.848;2023-05-29T04:05:33;3.03;;;2.83;;
40501;SDS011;29631;49.168;9.848;2023-05-29T04:07:59;3.10;;;2.83;;
40501;SDS011;29631;49.168;9.848;2023-05-29T04:10:26;3.10;;;2.83;;
40501;SDS011;29631;49.168;9.848;2023-05-29T04:12:51;3.15;;;2.85;;
40501;SDS011;29631;49.168;9.848;2023-05-29T04:15:17;3.13;;;2.85;;
40501;SDS011;29631;49.168;9.848;2023-05-29T04:17:43;3.72;;;2.67;;
40501;SDS011;29631;49.168;9.848;2023-05-29T04:20:08;3.45;;;2.95;;
40501;SDS011;29631;49.168;9.848;2023-05-29T04:22:35;3.22;;;2.92;;
40501;SDS011;29631;49.168;9.848;2023-05-29T04:25:02;3.25;;;2.97;;
40501;SDS011;29631;49.168;9.848;2023-05-29T04:27:29;3.03;;;2.83;;
40501;SDS011;29631;49.168;9.848;2023-05-29T04:29:57;3.47;;;3.17;;
40501;SDS011;29631;49.168;9.848;2023-05-29T04:32:23;3.13;;;2.83;;
40501;SDS011;29631;49.168;9.848;2023-05-29T04:34:49;3.20;;;2.90;;
40501;SDS011;29631;49.168;9.848;2023-05-29T04:37:16;3.50;;;3.20;;
40501;SDS011;29631;49.168;9.848;2023-05-29T04:39:42;3.17;;;2.90;;
40501;SDS011;29631;49.168;9.848;2023-05-29T04:42:08;3.00;;;2.55;;
40501;SDS011;29631;49.168;9.848;2023-05-29T04:44:34;2.80;;;2.60;;
40501;SDS011;29631;49.168;9.848;2023-05-29T04:47:00;3.03;;;2.83;;
40501;SDS011;29631;49.168;9.848;2023-05-29T04:49:28;3.05;;;2.78;;
40501;SDS011;29631;49.168;9.848;2023-05-29T04:51:54;3.22;;;2.95;;
40501;SDS011;29631;49.168;9.848;2023-05-29T04:54:21;3.13;;;2.92;;
40501;SDS011;29631;49.168;9.848;2023-05-29T04:56:47;3.13;;;2.85;;
40501;SDS011;29631;49.168;9.848;2023-05-29T04:59:13;3.08;;;2.88;;
40501;SDS011;29631;49.168;9.848;2023-05-29T05:01:39;3.33;;;3.13;;
40501;SDS011;29631;49.168;9.848;2023-05-29T05:04:08;3.17;;;2.97;;
40501;SDS011;29631;49.168;9.848;2023-05-29T05:06:34;3.28;;;2.97;;
40501;SDS011;29631;49.168;9.848;2023-05-29T05:09:00;3.03;;;2.83;;
40501;SDS011;29631;49.168;9.848;2023-05-29T05:11:26;3.00;;;2.80;;
40501;SDS011;29631;49.168;9.848;2023-05-29T05:13:51;3.13;;;2.92;;
40501;SDS011;29631;49.168;9.848;2023-05-29T05:16:17;3.13;;;2.92;;
40501;SDS011;29631;49.168;9.848;2023-05-29T05:18:43;3.25;;;3.00;;
40501;SDS011;29631;49.168;9.848;2023-05-29T05:21:09;3.08;;;2.80;;
40501;SDS011;29631;49.168;9.848;2023-05-29T05:23:35;3.55;;;3.25;;
40501;SDS011;29631;49.168;9.848;2023-05-29T05:26:01;3.20;;;3.00;;
40501;SDS011;29631;49.168;9.848;2023-05-29T05:28:27;3.25;;;3.05;;
40501;SDS011;29631;49.168;9.848;2023-05-29T05:30:53;4.03;;;3.10;;
40501;SDS011;29631;49.168;9.848;2023-05-29T05:33:18;3.38;;;3.10;;
40501;SDS011;29631;49.168;9.848;2023-05-29T05:35:44;3.20;;;3.00;;
40501;SDS011;29631;49.168;9.848;2023-05-29T05:38:10;3.30;;;3.00;;
40501;SDS011;29631;49.168;9.848;2023-05-29T05:40:37;5.65;;;3.03;;
40501;SDS011;29631;49.168;9.848;2023-05-29T05:43:03;3.30;;;3.08;;
40501;SDS011;29631;49.168;9.848;2023-05-29T05:45:28;3.72;;;3.42;;
40501;SDS011;29631;49.168;9.848;2023-05-29T05:47:54;3.70;;;3.40;;
40501;SDS011;29631;49.168;9.848;2023-05-29T05:50:21;3.33;;;3.03;;
40501;SDS011;29631;49.168;9.848;2023-05-29T05:52:47;3.10;;;2.80;;
40501;SDS011;29631;49.168;9.848;2023-05-29T05:55:13;4.10;;;3.03;;
40501;SDS011;29631;49.168;9.848;2023-05-29T05:57:38;3.38;;;3.05;;
40501;SDS011;29631;49.168;9.848;2023-05-29T06:00:04;3.67;;;3.38;;
40501;SDS011;29631;49.168;9.848;2023-05-29T06:02:37;3.13;;;2.80;;
40501;SDS011;29631;49.168;9.848;2023-05-29T06:05:06;3.25;;;2.95;;
40501;SDS011;29631;49.168;9.848;2023-05-29T06:07:32;4.28;;;3.40;;
40501;SDS011;29631;49.168;9.848;2023-05-29T06:09:58;2.88;;;2.70;;
40501;SDS011;29631;49.168;9.848;2023-05-29T06:12:24;4.28;;;3.10;;
40501;SDS011;29631;49.168;9.848;2023-05-29T06:14:50;3.08;;;2.80;;
40501;SDS011;29631;49.168;9.848;2023-05-29T06:17:16;3.40;;;3.10;;
40501;SDS011;29631;49.168;9.848;2023-05-29T06:19:42;3.17;;;2.88;;
40501;SDS011;29631;49.168;9.848;2023-05-29T06:22:07;3.85;;;3.00;;
40501;SDS011;29631;49.168;9.848;2023-05-29T06:24:33;3.33;;;3.03;;
40501;SDS011;29631;49.168;9.848;2023-05-29T06:26:59;3.67;;;3.10;;
40501;SDS011;29631;49.168;9.848;2023-05-29T06:29:26;4.47;;;3.42;;
40501;SDS011;29631;49.168;9.848;2023-05-29T06:31:52;3.30;;;3.05;;
40501;SDS011;29631;49.168;9.848;2023-05-29T06:34:18;3.67;;;3.35;;
40501;SDS011;29631;49.168;9.848;2023-05-29T06:36:43;3.08;;;2.72;;
40501;SDS011;29631;49.168;9.848;2023-05-29T06:39:09;3.20;;;2.92;;
40501;SDS011;29631;49.168;9.848;2023-05-29T06:41:35;3.78;;;2.83;;
40501;SDS011;29631;49.168;9.848;2023-05-29T06:44:01;3.17;;;2.88;;
40501;SDS011;29631;49.168;9.848;2023-05-29T06:46:26;4.07;;;2.88;;
40501;SDS011;29631;49.168;9.848;2023-05-29T06:48:52;3.38;;;3.08;;
40501;SDS011;29631;49.168;9.848;2023-05-29T06:51:18;3.50;;;3.20;;
40501;SDS011;29631;49.168;9.848;2023-05-29T06:53:43;5.30;;;3.10;;
40501;SDS011;29631;49.168;9.848;2023-05-29T06:56:09;3.60;;;3.30;;
40501;SDS011;29631;49.168;9.848;2023-05-29T06:58:35;3.33;;;3.13;;
40501;SDS011;29631;49.168;9.848;2023-05-29T07:01:01;4.63;;;2.85;;
40501;SDS011;29631;49.168;9.848;2023-05-29T07:03:27;3.50;;;3.20;;
40501;SDS011;29631;49.168;9.848;2023-05-29T07:05:53;3.55;;;3.25;;
40501;SDS011;29631;49.168;9.848;2023-05-29T07:08:20;4.03;;;3.55;;
40501;SDS011;29631;49.168;9.848;2023-05-29T07:10:46;3.17;;;2.88;;
40501;SDS011;29631;49.168;9.848;2023-05-29T07:13:14;2.92;;;2.70;;
40501;SDS011;29631;49.168;9.848;2023-05-29T07:15:41;3.20;;;2.95;;
40501;SDS011;29631;49.168;9.848;2023-05-29T07:18:07;3.38;;;3.08;;
40501;SDS011;29631;49.168;9.848;2023-05-29T07:20:33;3.28;;;2.97;;
40501;SDS011;29631;49.168;9.848;2023-05-29T07:23:00;3.13;;;2.92;;
40501;SDS011;29631;49.168;9.848;2023-05-29T07:25:27;3.95;;;3.03;;
40501;SDS011;29631;49.168;9.848;2023-05-29T07:27:52;2.92;;;2.72;;
40501;SDS011;29631;49.168;9.848;2023-05-29T07:30:18;2.85;;;2.65;;
40501;SDS011;29631;49.168;9.848;2023-05-29T07:32:44;3.40;;;3.08;;
40501;SDS011;29631;49.168;9.848;2023-05-29T07:35:10;3.22;;;3.03;;
40501;SDS011;29631;49.168;9.848;2023-05-29T07:37:36;2.70;;;2.50;;
40501;SDS011;29631;49.168;9.848;2023-05-29T07:40:02;3.03;;;2.80;;
40501;SDS011;29631;49.168;9.848;2023-05-29T07:42:34;4.32;;;3.15;;
40501;SDS011;29631;49.168;9.848;2023-05-29T07:45:00;2.75;;;2.55;;
40501;SDS011;29631;49.168;9.848;2023-05-29T07:47:26;3.75;;;3.03;;
40501;SDS011;29631;49.168;9.848;2023-05-29T07:49:51;3.40;;;3.10;;
40501;SDS011;29631;49.168;9.848;2023-05-29T07:52:17;3.10;;;2.83;;
40501;SDS011;29631;49.168;9.848;2023-05-29T07:54:43;3.60;;;2.97;;
40501;SDS011;29631;49.168;9.848;2023-05-29T07:57:09;3.05;;;2.53;;
40501;SDS011;29631;49.168;9.848;2023-05-29T07:59:35;3.50;;;3.08;;
40501;SDS011;29631;49.168;9.848;2023-05-29T08:02:02;2.85;;;2.75;;
40501;SDS011;29631;49.168;9.848;2023-05-29T08:04:29;3.42;;;3.10;;
40501;SDS011;29631;49.168;9.848;2023-05-29T08:06:55;2.95;;;2.80;;
40501;SDS011;29631;49.168;9.848;2023-05-29T08:09:21;3.10;;;2.90;;
40501;SDS011;29631;49.168;9.848;2023-05-29T08:11:47;3.33;;;3.00;;
40501;SDS011;29631;49.168;9.848;2023-05-29T08:14:13;2.83;;;2.63;;
40501;SDS011;29631;49.168;9.848;2023-05-29T08:16:40;3.17;;;2.95;;
40501;SDS011;29631;49.168;9.848;2023-05-29T08:19:07;3.03;;;2.83;;
40501;SDS011;29631;49.168;9.848;2023-05-29T08:21:33;3.28;;;3.08;;
40501;SDS011;29631;49.168;9.848;2023-05-29T08:23:59;3.08;;;2.80;;
40501;SDS011;29631;49.168;9.848;2023-05-29T08:26:25;3.05;;;2.75;;
40501;SDS011;29631;49.168;9.848;2023-05-29T08:28:51;3.90;;;3.10;;
40501;SDS011;29631;49.168;9.848;2023-05-29T08:31:17;2.63;;;2.53;;
40501;SDS011;29631;49.168;9.848;2023-05-29T08:33:43;3.25;;;2.92;;
40501;SDS011;29631;49.168;9.848;2023-05-29T08:36:09;3.00;;;2.80;;
40501;SDS011;29631;49.168;9.848;2023-05-29T08:38:35;2.90;;;2.70;;
40501;SDS011;29631;49.168;9.848;2023-05-29T08:41:01;3.97;;;2.88;;
40501;SDS011;29631;49.168;9.848;2023-05-29T08:43:30;3.70;;;3.40;;
40501;SDS011;29631;49.168;9.848;2023-05-29T08:45:58;3.47;;;3.17;;
40501;SDS011;29631;49.168;9.848;2023-05-29T08:48:28;3.10;;;2.90;;
40501;SDS011;29631;49.168;9.848;2023-05-29T08:50:56;3.50;;;2.75;;
40501;SDS011;29631;49.168;9.848;2023-05-29T08:53:23;3.13;;;2.83;;
40501;SDS011;29631;49.168;9.848;2023-05-29T08:55:51;3.00;;;2.70;;
40501;SDS011;29631;49.168;9.848;2023-05-29T08:58:21;3.65;;;2.83;;
40501;SDS011;29631;49.168;9.848;2023-05-29T09:00:47;3.47;;;2.80;;
40501;SDS011;29631;49.168;9.848;2023-05-29T09:03:14;2.75;;;2.55;;
40501;SDS011;29631;49.168;9.848;2023-05-29T09:05:40;6.15;;;2.90;;
40501;SDS011;29631;49.168;9.848;2023-05-29T09:08:10;3.45;;;3.15;;
40501;SDS011;29631;49.168;9.848;2023-05-29T09:10:44;2.72;;;2.53;;
40501;SDS011;29631;49.168;9.848;2023-05-29T09:13:11;2.55;;;2.45;;
40501;SDS011;29631;49.168;9.848;2023-05-29T09:15:38;5.88;;;2.63;;
40501;SDS011;29631;49.168;9.848;2023-05-29T09:18:07;2.83;;;2.63;;
40501;SDS011;29631;49.168;9.848;2023-05-29T09:20:33;2.72;;;2.53;;
40501;SDS011;29631;49.168;9.848;2023-05-29T09:23:00;4.10;;;2.47;;
40501;SDS011;29631;49.168;9.848;2023-05-29T09:25:35;2.58;;;2.42;;
40501;SDS011;29631;49.168;9.848;2023-05-29T09:28:09;2.65;;;2.55;;
40501;SDS011;29631;49.168;9.848;2023-05-29T09:33:06;2.30;;;2.10;;
40501;SDS011;29631;49.168;9.848;2023-05-29T09:38:20;2.50;;;2.33;;
40501;SDS011;29631;49.168;9.848;2023-05-29T09:40:46;3.30;;;2.97;;
40501;SDS011;29631;49.168;9.848;2023-05-29T09:43:13;2.78;;;2.40;;
40501;SDS011;29631;49.168;9.848;2023-05-29T09:45:43;2.80;;;2.60;;
40501;SDS011;29631;49.168;9.848;2023-05-29T09:50:43;2.60;;;2.42;;
40501;SDS011;29631;49.168;9.848;2023-05-29T09:53:20;2.92;;;2.70;;
40501;SDS011;29631;49.168;9.848;2023-05-29T09:55:51;2.70;;;2.60;;
40501;SDS011;29631;49.168;9.848;2023-05-29T09:58:19;4.88;;;2.33;;
40501;SDS011;29631;49.168;9.848;2023-05-29T10:00:48;2.53;;;2.40;;
40501;SDS011;29631;49.168;9.848;2023-05-29T10:03:14;2.55;;;2.45;;
40501;SDS011;29631;49.168;9.848;2023-05-29T10:05:42;2.47;;;2.28;;
40501;SDS011;29631;49.168;9.848;2023-05-29T10:08:12;2.50;;;2.40;;
40501;SDS011;29631;49.168;9.848;2023-05-29T10:10:43;2.40;;;2.30;;
40501;SDS011;29631;49.168;9.848;2023-05-29T10:13:14;2.70;;;2.47;;
40501;SDS011;29631;49.168;9.848;2023-05-29T10:15:41;2.70;;;2.50;;
40501;SDS011;29631;49.168;9.848;2023-05-29T10:18:14;2.80;;;2.60;;
40501;SDS011;29631;49.168;9.848;2023-05-29T10:20:53;2.60;;;2.40;;
40501;SDS011;29631;49.168;9.848;2023-05-29T10:23:23;2.78;;;2.58;;
40501;SDS011;29631;49.168;9.848;2023-05-29T10:25:54;2.47;;;2.28;;
40501;SDS011;29631;49.168;9.848;2023-05-29T10:28:32;2.92;;;2.72;;
40501;SDS011;29631;49.168;9.848;2023-05-29T10:31:03;2.50;;;2.28;;
40501;SDS011;29631;49.168;9.848;2023-05-29T10:36:19;5.15;;;2.50;;
40501;SDS011;29631;49.168;9.848;2023-05-29T10:38:49;2.60;;;2.50;;
40501;SDS011;29631;49.168;9.848;2023-05-29T10:43:56;7.20;;;2.55;;
40501;SDS011;29631;49.168;9.848;2023-05-29T10:47:06;2.42;;;2.22;;
40501;SDS011;29631;49.168;9.848;2023-05-29T10:49:21;2.53;;;2.42;;
40501;SDS011;29631;49.168;9.848;2023-05-29T10:51:47;2.63;;;2.42;;
40501;SDS011;29631;49.168;9.848;2023-05-29T10:54:14;2.90;;;2.60;;
40501;SDS011;29631;49.168;9.848;2023-05-29T10:56:44;5.20;;;2.42;;
40501;SDS011;29631;49.168;9.848;2023-05-29T10:59:20;2.30;;;2.20;;
40501;SDS011;29631;49.168;9.848;2023-05-29T11:01:46;2.22;;;2.03;;
40501;SDS011;29631;49.168;9.848;2023-05-29T11:06:45;2.50;;;2.30;;
40501;SDS011;29631;49.168;9.848;2023-05-29T11:12:11;3.90;;;2.38;;
40501;SDS011;29631;49.168;9.848;2023-05-29T11:15:09;2.42;;;2.33;;
40501;SDS011;29631;49.168;9.848;2023-05-29T11:20:05;2.65;;;2.45;;
40501;SDS011;29631;49.168;9.848;2023-05-29T11:23:18;2.42;;;2.30;;
40501;SDS011;29631;49.168;9.848;2023-05-29T11:25:27;3.00;;;2.80;;
40501;SDS011;29631;49.168;9.848;2023-05-29T11:27:53;2.47;;;2.38;;
40501;SDS011;29631;49.168;9.848;2023-05-29T11:30:20;2.35;;;2.25;;
40501;SDS011;29631;49.168;9.848;2023-05-29T11:32:47;2.40;;;2.30;;
40501;SDS011;29631;49.168;9.848;2023-05-29T11:35:17;2.50;;;2.40;;
40501;SDS011;29631;49.168;9.848;2023-05-29T11:37:47;2.78;;;2.63;;
40501;SDS011;29631;49.168;9.848;2023-05-29T11:40:13;3.13;;;2.67;;
40501;SDS011;29631;49.168;9.848;2023-05-29T11:42:41;2.55;;;2.35;;
40501;SDS011;29631;49.168;9.848;2023-05-29T11:45:17;2.55;;;2.45;;
40501;SDS011;29631;49.168;9.848;2023-05-29T11:47:52;2.97;;;2.78;;
40501;SDS011;29631;49.168;9.848;2023-05-29T11:50:26;2.50;;;2.40;;
40501;SDS011;29631;49.168;9.848;2023-05-29T11:52:54;2.33;;;2.20;;
40501;SDS011;29631;49.168;9.848;2023-05-29T11:55:22;2.38;;;2.28;;
40501;SDS011;29631;49.168;9.848;2023-05-29T11:57:49;2.47;;;2.30;;
40501;SDS011;29631;49.168;9.848;2023-05-29T12:00:20;2.50;;;2.40;;
40501;SDS011;29631;49.168;9.848;2023-05-29T12:02:47;2.30;;;2.20;;
40501;SDS011;29631;49.168;9.848;2023-05-29T12:05:13;2.50;;;2.40;;
40501;SDS011;29631;49.168;9.848;2023-05-29T12:07:51;2.33;;;2.22;;
40501;SDS011;29631;49.168;9.848;2023-05-29T12:10:19;2.30;;;2.10;;
40501;SDS011;29631;49.168;9.848;2023-05-29T12:12:55;3.15;;;2.35;;
40501;SDS011;29631;49.168;9.848;2023-05-29T12:15:23;2.40;;;2.25;;
40501;SDS011;29631;49.168;9.848;2023-05-29T12:17:50;2.50;;;2.40;;
40501;SDS011;29631;49.168;9.848;2023-05-29T12:20:17;2.47;;;2.28;;
40501;SDS011;29631;49.168;9.848;2023-05-29T12:22:44;2.30;;;2.20;;
40501;SDS011;29631;49.168;9.848;2023-05-29T12:25:20;3.05;;;2.15;;
40501;SDS011;29631;49.168;9.848;2023-05-29T12:27:47;2.33;;;2.22;;
40501;SDS011;29631;49.168;9.848;2023-05-29T12:30:14;2.38;;;2.20;;
40501;SDS011;29631;49.168;9.848;2023-05-29T12:32:44;2.40;;;2.30;;
40501;SDS011;29631;49.168;9.848;2023-05-29T12:35:15;2.40;;;2.20;;
40501;SDS011;29631;49.168;9.848;2023-05-29T12:37:55;2.58;;;2.38;;
40501;SDS011;29631;49.168;9.848;2023-05-29T12:40:33;3.58;;;2.25;;
40501;SDS011;29631;49.168;9.848;2023-05-29T12:43:02;2.55;;;2.35;;
40501;SDS011;29631;49.168;9.848;2023-05-29T12:45:32;2.30;;;2.20;;
40501;SDS011;29631;49.168;9.848;2023-05-29T12:47:59;2.40;;;2.30;;
40501;SDS011;29631;49.168;9.848;2023-05-29T12:50:34;2.22;;;2.03;;
40501;SDS011;29631;49.168;9.848;2023-05-29T12:53:05;2.60;;;2.40;;
40501;SDS011;29631;49.168;9.848;2023-05-29T12:55:33;2.65;;;2.45;;
40501;SDS011;29631;49.168;9.848;2023-05-29T12:58:04;2.10;;;2.00;;
40501;SDS011;29631;49.168;9.848;2023-05-29T13:00:38;2.47;;;2.30;;
40501;SDS011;29631;49.168;9.848;2023-05-29T13:03:07;2.20;;;2.10;;
40501;SDS011;29631;49.168;9.848;2023-05-29T13:05:34;2.38;;;2.28;;
40501;SDS011;29631;49.168;9.848;2023-05-29T13:08:00;2.38;;;2.20;;
40501;SDS011;29631;49.168;9.848;2023-05-29T13:10:26;2.17;;;2.08;;
40501;SDS011;29631;49.168;9.848;2023-05-29T13:12:53;2.47;;;2.28;;
40501;SDS011;29631;49.168;9.848;2023-05-29T13:15:21;2.22;;;2.13;;
40501;SDS011;29631;49.168;9.848;2023-05-29T13:17:48;2.30;;;2.20;;
40501;SDS011;29631;49.168;9.848;2023-05-29T13:20:14;2.13;;;1.92;;
40501;SDS011;29631;49.168;9.848;2023-05-29T13:22:41;2.63;;;2.10;;
40501;SDS011;29631;49.168;9.848;2023-05-29T13:25:09;3.75;;;2.30;;
40501;SDS011;29631;49.168;9.848;2023-05-29T13:27:42;2.20;;;2.10;;
40501;SDS011;29631;49.168;9.848;2023-05-29T13:30:11;2.40;;;2.30;;
40501;SDS011;29631;49.168;9.848;2023-05-29T13:32:38;2.20;;;2.10;;
40501;SDS011;29631;49.168;9.848;2023-05-29T13:35:04;2.15;;;2.05;;
40501;SDS011;29631;49.168;9.848;2023-05-29T13:37:30;1.92;;;1.83;;
40501;SDS011;29631;49.168;9.848;2023-05-29T13:39:56;2.22;;;2.08;;
40501;SDS011;29631;49.168;9.848;2023-05-29T13:42:22;2.03;;;1.92;;
40501;SDS011;29631;49.168;9.848;2023-05-29T13:44:48;2.22;;;2.13;;
40501;SDS011;29631;49.168;9.848;2023-05-29T13:47:14;2.20;;;2.10;;
40501;SDS011;29631;49.168;9.848;2023-05-29T13:49:41;2.13;;;2.00;;
40501;SDS011;29631;49.168;9.848;2023-05-29T13:52:07;2.22;;;2.13;;
40501;SDS011;29631;49.168;9.848;2023-05-29T13:54:33;2.28;;;2.17;;
40501;SDS011;29631;49.168;9.848;2023-05-29T13:57:02;1.92;;;1.83;;
40501;SDS011;29631;49.168;9.848;2023-05-29T13:59:34;2.38;;;2.17;;
40501;SDS011;29631;49.168;9.848;2023-05-29T14:02:01;2.10;;;2.00;;
40501;SDS011;29631;49.168;9.848;2023-05-29T14:04:29;2.20;;;2.10;;
40501;SDS011;29631;49.168;9.848;2023-05-29T14:06:55;2.92;;;1.90;;
40501;SDS011;29631;49.168;9.848;2023-05-29T14:09:22;2.25;;;2.00;;
40501;SDS011;29631;49.168;9.848;2023-05-29T14:11:55;2.40;;;2.30;;
40501;SDS011;29631;49.168;9.848;2023-05-29T14:14:25;2.15;;;2.05;;
40501;SDS011;29631;49.168;9.848;2023-05-29T14:16:52;2.50;;;2.30;;
40501;SDS011;29631;49.168;9.848;2023-05-29T14:19:19;2.88;;;2.60;;
40501;SDS011;29631;49.168;9.848;2023-05-29T14:21:45;1.90;;;1.83;;
40501;SDS011;29631;49.168;9.848;2023-05-29T14:24:11;2.25;;;2.15;;
40501;SDS011;29631;49.168;9.848;2023-05-29T14:26:38;2.17;;;2.08;;
40501;SDS011;29631;49.168;9.848;2023-05-29T14:29:03;2.25;;;2.05;;
40501;SDS011;29631;49.168;9.848;2023-05-29T14:31:29;2.20;;;2.10;;
40501;SDS011;29631;49.168;9.848;2023-05-29T14:33:55;2.22;;;2.13;;
40501;SDS011;29631;49.168;9.848;2023-05-29T14:36:21;2.65;;;2.50;;
40501;SDS011;29631;49.168;9.848;2023-05-29T14:38:47;1.80;;;1.80;;
40501;SDS011;29631;49.168;9.848;2023-05-29T14:41:14;2.30;;;2.20;;
40501;SDS011;29631;49.168;9.848;2023-05-29T14:43:41;2.60;;;2.40;;
40501;SDS011;29631;49.168;9.848;2023-05-29T14:46:07;2.40;;;2.20;;
40501;SDS011;29631;49.168;9.848;2023-05-29T14:48:34;2.35;;;2.25;;
40501;SDS011;29631;49.168;9.848;2023-05-29T14:51:00;2.22;;;2.10;;
40501;SDS011;29631;49.168;9.848;2023-05-29T14:53:26;2.22;;;2.13;;
40501;SDS011;29631;49.168;9.848;2023-05-29T14:55:52;2.30;;;2.15;;
40501;SDS011;29631;49.168;9.848;2023-05-29T14:58:18;2.15;;;2.05;;
40501;SDS011;29631;49.168;9.848;2023-05-29T15:00:44;4.90;;;2.20;;
40501;SDS011;29631;49.168;9.848;2023-05-29T15:03:10;2.25;;;2.05;;
40501;SDS011;29631;49.168;9.848;2023-05-29T15:05:36;2.85;;;2.50;;
40501;SDS011;29631;49.168;9.848;2023-05-29T15:08:01;2.25;;;2.13;;
40501;SDS011;29631;49.168;9.848;2023-05-29T15:10:27;2.25;;;2.08;;
40501;SDS011;29631;49.168;9.848;2023-05-29T15:12:53;2.22;;;2.13;;
40501;SDS011;29631;49.168;9.848;2023-05-29T15:15:22;2.67;;;2.58;;
40501;SDS011;29631;49.168;9.848;2023-05-29T15:17:49;2.40;;;2.30;;
40501;SDS011;29631;49.168;9.848;2023-05-29T15:20:18;2.78;;;2.58;;
40501;SDS011;29631;49.168;9.848;2023-05-29T15:22:45;2.70;;;2.50;;